Time;durP1;ratioP1;P1;durP2;ratioP2;P2;SDS_P1;SDS_P2;PMS_P1;PMS_P2;Temp;Humidity;BMP_temperature;BMP_pressure;BME280_temperature;BME280_humidity;BME280_pressure;Samples;Min_cycle;Max_cycle;Signal;HPM_P1;HPM_P2
2023/03/11 00:02:25;;;;;;;4.40;1.73;;;;;;;;;;5121309;27;20054;-81
2023/03/11 00:04:51;;;;;;;5.50;1.80;;;;;;;;;;5141043;27;20070;-81
2023/03/11 00:07:17;;;;;;;2.25;1.58;;;;;;;;;;5141896;27;20474;-82
2023/03/11 00:09:42;;;;;;;3.80;1.70;;;;;;;;;;5142148;27;20087;-82
2023/03/11 00:12:09;;;;;;;3.28;1.70;;;;;;;;;;5119664;27;20137;-83
2023/03/11 00:14:35;;;;;;;2.65;1.77;;;;;;;;;;5121695;27;20184;-83
2023/03/11 00:17:01;;;;;;;4.10;2.40;;;;;;;;;;5139834;27;20099;-82
2023/03/11 00:19:27;;;;;;;6.22;2.00;;;;;;;;;;5117098;27;20457;-82
2023/03/11 00:21:53;;;;;;;3.05;1.83;;;;;;;;;;5121407;27;20188;-82
2023/03/11 00:24:19;;;;;;;4.63;1.90;;;;;;;;;;5136581;27;20514;-81
2023/03/11 00:26:45;;;;;;;6.03;1.77;;;;;;;;;;5136115;27;20127;-82
2023/03/11 00:29:11;;;;;;;1.55;1.45;;;;;;;;;;5135223;27;20071;-82
2023/03/11 00:31:37;;;;;;;6.32;1.77;;;;;;;;;;5116602;27;20047;-82
2023/03/11 00:34:03;;;;;;;2.83;1.63;;;;;;;;;;5117918;27;20143;-81
2023/03/11 00:36:33;;;;;;;4.38;1.60;;;;;;;;;;5120218;27;20043;-81
2023/03/11 00:39:00;;;;;;;2.03;1.60;;;;;;;;;;5137381;27;20076;-82
2023/03/11 00:41:26;;;;;;;6.55;2.00;;;;;;;;;;5114229;27;20047;-81
2023/03/11 00:43:52;;;;;;;6.20;1.85;;;;;;;;;;5135720;27;20456;-82
2023/03/11 00:46:18;;;;;;;2.65;2.00;;;;;;;;;;5116643;27;20402;-81
2023/03/11 00:48:44;;;;;;;3.13;1.70;;;;;;;;;;5137910;27;20066;-81
2023/03/11 00:51:14;;;;;;;2.90;1.80;;;;;;;;;;5135358;27;20077;-81
2023/03/11 00:53:41;;;;;;;3.88;1.70;;;;;;;;;;5117221;27;20537;-81
2023/03/11 00:56:08;;;;;;;4.82;1.98;;;;;;;;;;5115671;27;20047;-81
2023/03/11 00:58:34;;;;;;;4.32;1.40;;;;;;;;;;5132121;27;20035;-82
2023/03/11 01:01:01;;;;;;;5.78;1.70;;;;;;;;;;5116749;27;20039;-81
2023/03/11 01:03:27;;;;;;;2.58;1.70;;;;;;;;;;5135833;27;20046;-82
2023/03/11 01:05:53;;;;;;;2.30;1.65;;;;;;;;;;5117389;27;20134;-82
2023/03/11 01:08:19;;;;;;;2.80;1.40;;;;;;;;;;5138723;27;20035;-82
2023/03/11 01:10:45;;;;;;;3.95;1.65;;;;;;;;;;5122043;27;20095;-81
2023/03/11 01:13:11;;;;;;;3.65;1.65;;;;;;;;;;5116496;27;20039;-82
2023/03/11 01:15:37;;;;;;;3.90;1.90;;;;;;;;;;5120481;27;20043;-81
2023/03/11 01:18:03;;;;;;;3.70;1.50;;;;;;;;;;5119827;27;21340;-81
2023/03/11 01:20:29;;;;;;;2.67;1.70;;;;;;;;;;5136335;27;20046;-81
2023/03/11 01:22:55;;;;;;;2.38;1.42;;;;;;;;;;5139767;27;20053;-81
2023/03/11 01:25:22;;;;;;;4.30;1.90;;;;;;;;;;5118570;27;20517;-81
2023/03/11 01:27:48;;;;;;;2.60;1.48;;;;;;;;;;5125614;28;20402;-81
2023/03/11 01:30:17;;;;;;;3.58;1.75;;;;;;;;;;5139924;27;20379;-81
2023/03/11 01:32:43;;;;;;;2.42;1.80;;;;;;;;;;5119729;27;20044;-82
2023/03/11 01:35:11;;;;;;;3.25;1.65;;;;;;;;;;5128659;27;20385;-81
2023/03/11 01:37:37;;;;;;;3.28;1.80;;;;;;;;;;5137036;27;20083;-81
2023/03/11 01:40:03;;;;;;;4.57;1.80;;;;;;;;;;5141239;27;20058;-81
2023/03/11 01:42:29;;;;;;;2.78;1.70;;;;;;;;;;5116471;27;20043;-81
2023/03/11 01:44:55;;;;;;;2.97;2.17;;;;;;;;;;5119273;27;20047;-81
2023/03/11 01:47:38;;;;;;;3.97;1.80;;;;;;;;;;5119323;27;20060;-81
2023/03/11 01:50:06;;;;;;;6.40;1.80;;;;;;;;;;5120422;28;20497;-81
2023/03/11 01:52:32;;;;;;;4.07;1.80;;;;;;;;;;5141137;27;20134;-81
2023/03/11 01:54:58;;;;;;;4.70;1.95;;;;;;;;;;5142999;27;20141;-81
2023/03/11 01:57:24;;;;;;;5.65;2.08;;;;;;;;;;5123949;27;20054;-81
2023/03/11 01:59:51;;;;;;;2.55;1.60;;;;;;;;;;5128496;27;20485;-81
2023/03/11 02:02:40;;;;;;;2.92;1.65;;;;;;;;;;5124937;27;20038;-81
2023/03/11 02:05:06;;;;;;;4.10;1.60;;;;;;;;;;5138778;27;20107;-82
2023/03/11 02:07:32;;;;;;;5.47;1.73;;;;;;;;;;5121754;27;20482;-82
2023/03/11 02:09:58;;;;;;;3.63;1.77;;;;;;;;;;5130213;27;20039;-82
2023/03/11 02:12:24;;;;;;;4.10;1.50;;;;;;;;;;5150336;27;20039;-82
2023/03/11 02:14:53;;;;;;;2.25;1.70;;;;;;;;;;5124581;27;20508;-82
2023/03/11 02:17:19;;;;;;;2.67;1.70;;;;;;;;;;5149169;27;20367;-81
2023/03/11 02:19:58;;;;;;;2.50;1.80;;;;;;;;;;5133891;27;20047;-81
2023/03/11 02:22:24;;;;;;;2.20;1.60;;;;;;;;;;5126804;27;20057;-81
2023/03/11 02:24:55;;;;;;;3.25;1.83;;;;;;;;;;5131164;27;20047;-81
2023/03/11 02:27:21;;;;;;;3.28;2.03;;;;;;;;;;5128860;27;20039;-81
2023/03/11 02:29:48;;;;;;;4.57;1.60;;;;;;;;;;5124459;27;20047;-81
2023/03/11 02:32:15;;;;;;;4.05;1.70;;;;;;;;;;5141880;27;20038;-81
2023/03/11 02:34:41;;;;;;;6.38;1.83;;;;;;;;;;5144555;27;20038;-81
2023/03/11 02:37:09;;;;;;;4.60;1.92;;;;;;;;;;5125131;27;20047;-81
2023/03/11 02:39:36;;;;;;;3.33;1.92;;;;;;;;;;5135330;27;20092;-81
2023/03/11 02:42:05;;;;;;;5.45;1.60;;;;;;;;;;5145060;27;20052;-81
2023/03/11 02:44:31;;;;;;;2.92;1.67;;;;;;;;;;5126133;27;20481;-81
2023/03/11 02:46:57;;;;;;;2.65;1.73;;;;;;;;;;5147259;27;20035;-81
2023/03/11 02:49:24;;;;;;;3.72;1.90;;;;;;;;;;5141809;27;20099;-81
2023/03/11 02:51:51;;;;;;;5.35;1.80;;;;;;;;;;5132852;27;20043;-81
2023/03/11 02:54:17;;;;;;;3.00;1.90;;;;;;;;;;5122934;27;20046;-82
2023/03/11 02:56:43;;;;;;;4.55;1.60;;;;;;;;;;5125482;27;20073;-81
2023/03/11 02:59:09;;;;;;;3.92;1.80;;;;;;;;;;5122554;27;20058;-82
2023/03/11 03:01:35;;;;;;;3.85;1.80;;;;;;;;;;5126899;27;20431;-81
2023/03/11 03:04:02;;;;;;;5.22;1.90;;;;;;;;;;5141062;27;20389;-82
2023/03/11 03:06:28;;;;;;;7.55;1.90;;;;;;;;;;5126934;27;20055;-82
2023/03/11 03:08:54;;;;;;;6.22;1.90;;;;;;;;;;5126814;27;20043;-82
2023/03/11 03:11:20;;;;;;;3.40;1.60;;;;;;;;;;5116265;27;21712;-82
2023/03/11 03:13:46;;;;;;;3.28;1.60;;;;;;;;;;5141044;27;20070;-82
2023/03/11 03:16:12;;;;;;;2.03;1.80;;;;;;;;;;5142571;27;20083;-82
2023/03/11 03:18:38;;;;;;;6.45;1.80;;;;;;;;;;5121546;27;20092;-82
2023/03/11 03:21:04;;;;;;;6.63;1.75;;;;;;;;;;5122096;27;20051;-82
2023/03/11 03:23:36;;;;;;;5.68;1.90;;;;;;;;;;5120886;27;20130;-82
2023/03/11 03:26:02;;;;;;;5.47;2.25;;;;;;;;;;5126805;27;20039;-83
2023/03/11 03:28:28;;;;;;;4.68;1.83;;;;;;;;;;5122144;27;20185;-82
2023/03/11 03:30:54;;;;;;;5.65;1.98;;;;;;;;;;5147591;27;20489;-83
2023/03/11 03:33:20;;;;;;;3.10;1.60;;;;;;;;;;5119845;27;20496;-82
2023/03/11 03:35:47;;;;;;;5.30;1.80;;;;;;;;;;5144458;27;20054;-82
2023/03/11 03:38:13;;;;;;;6.30;2.05;;;;;;;;;;5150314;27;20443;-83
2023/03/11 03:40:39;;;;;;;5.05;1.83;;;;;;;;;;5123959;27;20548;-83
2023/03/11 03:43:05;;;;;;;6.20;2.15;;;;;;;;;;5122167;27;20080;-82
2023/03/11 03:45:31;;;;;;;6.15;1.85;;;;;;;;;;5142974;27;20038;-82
2023/03/11 03:47:57;;;;;;;2.53;1.50;;;;;;;;;;5139822;27;20042;-82
2023/03/11 03:50:23;;;;;;;6.93;1.80;;;;;;;;;;5124167;27;20047;-82
2023/03/11 03:52:49;;;;;;;3.97;1.50;;;;;;;;;;5125489;27;20050;-82
2023/03/11 03:55:15;;;;;;;7.65;1.90;;;;;;;;;;5134301;27;20035;-82
2023/03/11 03:57:41;;;;;;;4.13;1.80;;;;;;;;;;5130064;27;20114;-82
2023/03/11 04:00:08;;;;;;;5.55;1.90;;;;;;;;;;5127575;27;20039;-82
2023/03/11 04:02:34;;;;;;;4.38;1.90;;;;;;;;;;5143552;27;20034;-82
2023/03/11 04:05:00;;;;;;;9.43;1.77;;;;;;;;;;5121382;27;20130;-82
2023/03/11 04:07:26;;;;;;;2.72;1.70;;;;;;;;;;5146873;27;20043;-82
2023/03/11 04:09:52;;;;;;;3.83;1.85;;;;;;;;;;5121285;27;20089;-83
2023/03/11 04:12:18;;;;;;;2.85;1.80;;;;;;;;;;5127787;27;20402;-82
2023/03/11 04:14:44;;;;;;;3.75;1.70;;;;;;;;;;5139103;27;20039;-82
2023/03/11 04:17:11;;;;;;;4.78;1.70;;;;;;;;;;5124851;27;20387;-83
2023/03/11 04:19:37;;;;;;;5.63;1.80;;;;;;;;;;5123234;27;20051;-82
2023/03/11 04:22:03;;;;;;;2.65;1.90;;;;;;;;;;5134564;27;20440;-83
2023/03/11 04:24:29;;;;;;;3.53;1.70;;;;;;;;;;5124272;27;20043;-82
2023/03/11 04:26:55;;;;;;;3.58;1.70;;;;;;;;;;5122305;27;20070;-83
2023/03/11 04:29:21;;;;;;;3.38;1.70;;;;;;;;;;5117977;27;20093;-82
2023/03/11 04:31:47;;;;;;;1.70;1.60;;;;;;;;;;5142308;27;20419;-82
2023/03/11 04:34:13;;;;;;;4.55;1.70;;;;;;;;;;5122242;27;20055;-81
2023/03/11 04:36:39;;;;;;;2.80;1.95;;;;;;;;;;5122809;27;20047;-82
2023/03/11 04:39:05;;;;;;;2.80;1.80;;;;;;;;;;5123201;27;20188;-83
2023/03/11 04:41:31;;;;;;;5.85;1.80;;;;;;;;;;5128016;27;20043;-82
2023/03/11 04:43:59;;;;;;;2.85;1.63;;;;;;;;;;5116651;27;20113;-82
2023/03/11 04:46:25;;;;;;;3.78;1.60;;;;;;;;;;5128461;27;20050;-81
2023/03/11 04:48:51;;;;;;;3.90;2.05;;;;;;;;;;5127439;27;20046;-82
2023/03/11 04:51:17;;;;;;;5.32;1.80;;;;;;;;;;5125704;27;20117;-82
2023/03/11 04:53:43;;;;;;;3.67;1.80;;;;;;;;;;5145290;27;20183;-82
2023/03/11 04:56:09;;;;;;;3.22;1.60;;;;;;;;;;5120146;27;20031;-82
2023/03/11 04:58:35;;;;;;;5.05;2.15;;;;;;;;;;5128097;27;20043;-82
2023/03/11 05:01:01;;;;;;;5.65;1.63;;;;;;;;;;5134605;27;20039;-82
2023/03/11 05:03:27;;;;;;;4.88;1.75;;;;;;;;;;5145500;27;20047;-82
2023/03/11 05:05:55;;;;;;;3.75;1.80;;;;;;;;;;5144450;27;20384;-82
2023/03/11 05:08:22;;;;;;;5.65;2.08;;;;;;;;;;5141658;27;20039;-81
2023/03/11 05:10:48;;;;;;;1.52;1.42;;;;;;;;;;5144394;27;20084;-81
2023/03/11 05:13:14;;;;;;;2.33;1.80;;;;;;;;;;5144756;27;20042;-81
2023/03/11 05:15:41;;;;;;;2.55;1.70;;;;;;;;;;5147195;27;20042;-82
2023/03/11 05:18:07;;;;;;;4.18;1.90;;;;;;;;;;5139412;27;20110;-82
2023/03/11 05:20:33;;;;;;;5.85;1.80;;;;;;;;;;5145522;27;20047;-81
2023/03/11 05:22:59;;;;;;;2.72;1.73;;;;;;;;;;5124624;27;20048;-82
2023/03/11 05:25:25;;;;;;;4.25;1.88;;;;;;;;;;5142567;27;20047;-82
2023/03/11 05:27:51;;;;;;;3.95;1.80;;;;;;;;;;5140652;27;20035;-81
2023/03/11 05:30:17;;;;;;;3.58;1.70;;;;;;;;;;5138971;27;20588;-82
2023/03/11 05:32:44;;;;;;;4.28;1.88;;;;;;;;;;5123956;27;20040;-82
2023/03/11 05:35:10;;;;;;;6.25;2.08;;;;;;;;;;5123747;27;20119;-82
2023/03/11 05:37:38;;;;;;;4.07;1.60;;;;;;;;;;5141396;27;20124;-81
2023/03/11 05:40:05;;;;;;;6.47;1.90;;;;;;;;;;5132156;27;20120;-82
2023/03/11 05:42:31;;;;;;;4.35;1.95;;;;;;;;;;5150495;27;20046;-82
2023/03/11 05:44:57;;;;;;;5.80;1.90;;;;;;;;;;5142429;27;20046;-81
2023/03/11 05:47:23;;;;;;;4.40;1.80;;;;;;;;;;5139885;27;20401;-81
2023/03/11 05:49:49;;;;;;;4.95;1.80;;;;;;;;;;5148563;27;20132;-81
2023/03/11 05:52:16;;;;;;;7.13;1.90;;;;;;;;;;5137014;27;20478;-81
2023/03/11 05:54:42;;;;;;;6.63;1.90;;;;;;;;;;5123079;27;20051;-81
2023/03/11 05:57:08;;;;;;;3.13;1.92;;;;;;;;;;5123096;27;20118;-81
2023/03/11 05:59:36;;;;;;;4.03;1.90;;;;;;;;;;5127368;27;20107;-81
2023/03/11 06:02:02;;;;;;;4.53;2.25;;;;;;;;;;5149375;27;20042;-81
2023/03/11 06:04:28;;;;;;;5.38;2.25;;;;;;;;;;5127013;27;20074;-82
2023/03/11 06:06:54;;;;;;;2.42;1.63;;;;;;;;;;5127476;27;20042;-81
2023/03/11 06:09:20;;;;;;;5.85;2.25;;;;;;;;;;5143664;27;20493;-82
2023/03/11 06:11:46;;;;;;;6.70;2.40;;;;;;;;;;5134832;27;20077;-82
2023/03/11 06:14:13;;;;;;;6.72;1.88;;;;;;;;;;5126079;27;20133;-81
2023/03/11 06:16:40;;;;;;;6.57;2.70;;;;;;;;;;5141574;27;20489;-81
2023/03/11 06:19:06;;;;;;;3.90;1.67;;;;;;;;;;5143332;27;20047;-81
2023/03/11 06:21:32;;;;;;;7.07;1.98;;;;;;;;;;5121173;27;20058;-82
2023/03/11 06:23:58;;;;;;;5.85;2.00;;;;;;;;;;5123795;27;20047;-82
2023/03/11 06:26:25;;;;;;;6.78;2.20;;;;;;;;;;5143035;27;20393;-81
2023/03/11 06:28:51;;;;;;;9.68;2.20;;;;;;;;;;5129624;27;20058;-81
2023/03/11 06:31:25;;;;;;;5.03;1.95;;;;;;;;;;5150048;27;20031;-81
2023/03/11 06:33:51;;;;;;;3.33;2.00;;;;;;;;;;5124811;27;20471;-82
2023/03/11 06:36:18;;;;;;;7.03;1.80;;;;;;;;;;5122244;27;20054;-81
2023/03/11 06:38:48;;;;;;;4.45;2.17;;;;;;;;;;5114693;27;20405;-82
2023/03/11 06:41:15;;;;;;;5.05;2.05;;;;;;;;;;5129718;27;20456;-81
2023/03/11 06:43:41;;;;;;;5.47;1.95;;;;;;;;;;5139769;27;20397;-81
2023/03/11 06:46:08;;;;;;;5.88;2.13;;;;;;;;;;5143692;27;20039;-81
2023/03/11 06:48:34;;;;;;;7.78;3.50;;;;;;;;;;5151477;27;20042;-81
2023/03/11 06:51:00;;;;;;;26.45;12.20;;;;;;;;;;5121154;27;20054;-82
2023/03/11 06:53:27;;;;;;;7.55;2.45;;;;;;;;;;5142350;27;20150;-82
2023/03/11 06:55:59;;;;;;;6.00;1.90;;;;;;;;;;5119702;27;20038;-81
2023/03/11 06:58:26;;;;;;;9.15;2.47;;;;;;;;;;5145090;27;20046;-81
2023/03/11 07:00:52;;;;;;;4.70;1.90;;;;;;;;;;5146680;27;20071;-82
2023/03/11 07:03:18;;;;;;;4.53;1.60;;;;;;;;;;5119344;27;20047;-81
2023/03/11 07:05:44;;;;;;;4.05;1.70;;;;;;;;;;5130158;27;20046;-82
2023/03/11 07:08:10;;;;;;;5.18;1.90;;;;;;;;;;5140720;27;20034;-82
2023/03/11 07:10:36;;;;;;;4.65;1.67;;;;;;;;;;5123540;27;21962;-82
2023/03/11 07:13:02;;;;;;;6.45;2.05;;;;;;;;;;5120560;27;20042;-81
2023/03/11 07:15:28;;;;;;;7.90;2.10;;;;;;;;;;5128299;27;20164;-82
2023/03/11 07:17:54;;;;;;;4.45;1.85;;;;;;;;;;5138775;27;20039;-82
2023/03/11 07:20:20;;;;;;;8.70;2.55;;;;;;;;;;5146392;27;20060;-82
2023/03/11 07:22:46;;;;;;;2.80;1.80;;;;;;;;;;5144861;27;20035;-82
2023/03/11 07:25:12;;;;;;;7.10;1.90;;;;;;;;;;5138301;27;20408;-81
2023/03/11 07:27:38;;;;;;;4.15;1.65;;;;;;;;;;5141547;27;20379;-82
2023/03/11 07:30:04;;;;;;;2.80;1.70;;;;;;;;;;5140823;27;20043;-82
2023/03/11 07:32:30;;;;;;;5.90;2.03;;;;;;;;;;5143552;27;20046;-82
2023/03/11 07:34:56;;;;;;;3.83;1.63;;;;;;;;;;5141895;27;20045;-82
2023/03/11 07:37:22;;;;;;;4.18;1.75;;;;;;;;;;5148260;27;20431;-82
2023/03/11 07:39:48;;;;;;;7.75;2.00;;;;;;;;;;5126731;27;20035;-82
2023/03/11 07:42:14;;;;;;;4.18;1.67;;;;;;;;;;5120262;27;20122;-82
2023/03/11 07:44:40;;;;;;;5.90;2.13;;;;;;;;;;5121925;27;20397;-82
2023/03/11 07:47:06;;;;;;;9.20;2.13;;;;;;;;;;5144792;27;20039;-82
2023/03/11 07:49:32;;;;;;;5.85;1.90;;;;;;;;;;5125556;27;20418;-82
2023/03/11 07:51:58;;;;;;;8.77;2.00;;;;;;;;;;5146928;27;20367;-82
2023/03/11 07:54:24;;;;;;;7.45;2.33;;;;;;;;;;5124015;27;20050;-82
2023/03/11 07:56:50;;;;;;;6.07;1.80;;;;;;;;;;5122036;27;20474;-82
2023/03/11 07:59:16;;;;;;;6.78;1.70;;;;;;;;;;5136417;27;20039;-82
2023/03/11 08:01:46;;;;;;;4.10;1.92;;;;;;;;;;5143445;27;20092;-82
2023/03/11 08:04:12;;;;;;;6.07;2.28;;;;;;;;;;5141448;27;20122;-82
2023/03/11 08:06:40;;;;;;;6.80;1.73;;;;;;;;;;5122843;27;20420;-82
2023/03/11 08:09:08;;;;;;;7.30;2.15;;;;;;;;;;5118735;27;20054;-82
2023/03/11 08:11:34;;;;;;;8.38;1.88;;;;;;;;;;5132182;27;20039;-82
2023/03/11 08:14:01;;;;;;;3.65;2.20;;;;;;;;;;5122578;27;20138;-83
2023/03/11 08:16:28;;;;;;;4.20;1.77;;;;;;;;;;5119508;27;20052;-82
2023/03/11 08:18:54;;;;;;;2.85;1.92;;;;;;;;;;5136493;27;20046;-82
2023/03/11 08:21:22;;;;;;;8.20;2.25;;;;;;;;;;5117465;27;20051;-82
2023/03/11 08:23:48;;;;;;;3.78;1.75;;;;;;;;;;5125549;27;20043;-82
2023/03/11 08:26:16;;;;;;;4.20;1.90;;;;;;;;;;5121887;27;20042;-82
2023/03/11 08:28:43;;;;;;;4.15;1.83;;;;;;;;;;5125700;27;20051;-82
2023/03/11 08:31:13;;;;;;;6.68;1.95;;;;;;;;;;5129854;27;20061;-82
2023/03/11 08:33:39;;;;;;;4.32;1.80;;;;;;;;;;5148469;27;20049;-82
2023/03/11 08:36:05;;;;;;;3.38;1.77;;;;;;;;;;5123007;27;20103;-81
2023/03/11 08:38:31;;;;;;;4.57;2.10;;;;;;;;;;5134872;27;20050;-82
2023/03/11 08:40:57;;;;;;;8.35;2.00;;;;;;;;;;5125302;27;20043;-81
2023/03/11 08:43:23;;;;;;;2.90;1.65;;;;;;;;;;5146360;27;20042;-82
2023/03/11 08:45:52;;;;;;;4.07;1.60;;;;;;;;;;5128694;27;20398;-81
2023/03/11 08:48:18;;;;;;;3.97;1.90;;;;;;;;;;5150371;27;20035;-82
2023/03/11 08:50:44;;;;;;;5.07;2.00;;;;;;;;;;5147382;27;20043;-81
2023/03/11 08:53:10;;;;;;;3.50;1.92;;;;;;;;;;5130509;27;20117;-81
2023/03/11 08:55:36;;;;;;;3.95;1.80;;;;;;;;;;5130112;27;20099;-82
2023/03/11 08:58:02;;;;;;;6.72;1.95;;;;;;;;;;5124919;27;20406;-82
2023/03/11 09:00:28;;;;;;;3.10;1.80;;;;;;;;;;5141041;27;20042;-80
2023/03/11 09:02:55;;;;;;;3.90;1.80;;;;;;;;;;5138797;27;20100;-83
2023/03/11 09:05:21;;;;;;;6.07;1.83;;;;;;;;;;5126454;27;20343;-82
2023/03/11 09:07:47;;;;;;;5.55;1.77;;;;;;;;;;5142829;27;20094;-83
2023/03/11 09:10:14;;;;;;;6.60;1.98;;;;;;;;;;5124195;27;20573;-84
2023/03/11 09:12:40;;;;;;;3.08;2.03;;;;;;;;;;5122885;27;20045;-82
2023/03/11 09:15:07;;;;;;;5.93;2.15;;;;;;;;;;5139719;27;20039;-82
2023/03/11 09:17:33;;;;;;;5.20;1.80;;;;;;;;;;5148296;27;20084;-82
2023/03/11 09:19:59;;;;;;;2.72;1.63;;;;;;;;;;5132338;27;20121;-81
2023/03/11 09:22:25;;;;;;;5.82;2.20;;;;;;;;;;5131751;27;20419;-81
2023/03/11 09:24:51;;;;;;;5.65;1.98;;;;;;;;;;5144257;27;20393;-82
2023/03/11 09:27:17;;;;;;;4.45;1.80;;;;;;;;;;5122428;27;20041;-81
2023/03/11 09:29:43;;;;;;;6.13;2.00;;;;;;;;;;5129678;27;20043;-82
2023/03/11 09:32:13;;;;;;;2.97;1.88;;;;;;;;;;5143793;27;20081;-82
2023/03/11 09:34:39;;;;;;;6.15;1.90;;;;;;;;;;5127780;27;20500;-82
2023/03/11 09:37:05;;;;;;;2.67;1.88;;;;;;;;;;5139036;27;20039;-82
2023/03/11 09:39:31;;;;;;;6.82;2.22;;;;;;;;;;5141671;27;20046;-81
2023/03/11 09:42:00;;;;;;;3.88;1.70;;;;;;;;;;5147395;27;20117;-81
2023/03/11 09:44:26;;;;;;;4.25;1.80;;;;;;;;;;5121459;27;20166;-82
2023/03/11 09:47:16;;;;;;;4.78;1.88;;;;;;;;;;5123230;27;20082;-81
2023/03/11 09:49:45;;;;;;;4.80;1.85;;;;;;;;;;5121061;27;20074;-81
2023/03/11 09:52:15;;;;;;;3.15;1.70;;;;;;;;;;5121795;27;20122;-82
2023/03/11 09:54:52;;;;;;;5.55;1.60;;;;;;;;;;5136354;27;20407;-85
2023/03/11 09:57:23;;;;;;;8.20;1.67;;;;;;;;;;5133540;27;20498;-85
2023/03/11 09:59:50;;;;;;;6.57;1.80;;;;;;;;;;5134098;27;20066;-85
2023/03/11 10:02:19;;;;;;;3.65;1.65;;;;;;;;;;5144110;27;20042;-85
2023/03/11 10:04:45;;;;;;;7.18;1.80;;;;;;;;;;5128099;27;20038;-84
2023/03/11 10:07:21;;;;;;;4.40;1.52;;;;;;;;;;5138386;27;20470;-85
2023/03/11 10:09:47;;;;;;;5.22;1.73;;;;;;;;;;5155202;27;20050;-85
2023/03/11 10:12:13;;;;;;;7.03;2.00;;;;;;;;;;5131827;27;20122;-86
2023/03/11 10:14:57;;;;;;;4.25;1.77;;;;;;;;;;5126431;27;21539;-86
2023/03/11 10:17:42;;;;;;;7.05;2.03;;;;;;;;;;5120586;27;20466;-86
2023/03/11 10:20:27;;;;;;;1.80;1.70;;;;;;;;;;5136163;27;20051;-86
2023/03/11 10:22:56;;;;;;;6.43;1.95;;;;;;;;;;5129410;27;20125;-86
2023/03/11 10:25:41;;;;;;;3.13;1.60;;;;;;;;;;5121085;27;20054;-86
2023/03/11 10:28:15;;;;;;;6.05;2.15;;;;;;;;;;5146314;27;20084;-86
2023/03/11 10:30:48;;;;;;;4.22;1.63;;;;;;;;;;5127260;27;20521;-86
2023/03/11 10:33:21;;;;;;;5.28;1.90;;;;;;;;;;5132812;27;20053;-85
2023/03/11 10:35:50;;;;;;;1.83;1.67;;;;;;;;;;5123956;27;20509;-84
2023/03/11 10:38:19;;;;;;;2.85;1.50;;;;;;;;;;5129319;27;20492;-86
2023/03/11 10:40:47;;;;;;;3.42;1.50;;;;;;;;;;5130602;27;20043;-87
2023/03/11 10:43:15;;;;;;;5.60;2.30;;;;;;;;;;5149904;27;20051;-86
2023/03/11 10:45:44;;;;;;;5.03;2.05;;;;;;;;;;5152184;27;20493;-85
2023/03/11 10:48:12;;;;;;;6.68;1.70;;;;;;;;;;5128775;27;20233;-86
2023/03/11 10:50:42;;;;;;;4.78;1.98;;;;;;;;;;5126212;27;20066;-86
2023/03/11 10:53:09;;;;;;;3.35;1.90;;;;;;;;;;5145942;27;20088;-86
2023/03/11 10:55:35;;;;;;;4.85;1.70;;;;;;;;;;5129273;27;20473;-85
2023/03/11 10:58:12;;;;;;;2.92;1.73;;;;;;;;;;5128380;27;20542;-85
2023/03/11 11:00:38;;;;;;;6.85;2.17;;;;;;;;;;5125914;27;20056;-86
2023/03/11 11:03:05;;;;;;;5.82;2.08;;;;;;;;;;5129420;27;20047;-86
2023/03/11 11:05:32;;;;;;;3.38;2.13;;;;;;;;;;5148531;27;20059;-86
2023/03/11 11:08:07;;;;;;;2.70;1.52;;;;;;;;;;5134187;27;20038;-86
2023/03/11 11:10:33;;;;;;;5.68;1.80;;;;;;;;;;5146127;27;20109;-86
2023/03/11 11:13:02;;;;;;;5.10;1.77;;;;;;;;;;5135146;27;20039;-85
2023/03/11 11:15:30;;;;;;;5.45;1.83;;;;;;;;;;5127455;27;20031;-85
2023/03/11 11:17:58;;;;;;;2.33;2.08;;;;;;;;;;5142972;27;20047;-85
2023/03/11 11:20:25;;;;;;;7.55;1.70;;;;;;;;;;5132143;27;20042;-85
2023/03/11 11:22:52;;;;;;;3.15;1.50;;;;;;;;;;5134729;27;20484;-85
2023/03/11 11:25:35;;;;;;;4.07;1.65;;;;;;;;;;5129133;27;20061;-85
2023/03/11 11:28:04;;;;;;;4.68;2.05;;;;;;;;;;5127558;27;20129;-83
2023/03/11 11:30:30;;;;;;;4.38;1.65;;;;;;;;;;5120633;27;20760;-82
2023/03/11 11:32:56;;;;;;;6.47;1.80;;;;;;;;;;5146333;27;20042;-81
2023/03/11 11:35:24;;;;;;;4.22;2.00;;;;;;;;;;5149991;27;20042;-82
2023/03/11 11:37:52;;;;;;;4.40;1.95;;;;;;;;;;5129434;27;20074;-82
2023/03/11 11:40:24;;;;;;;4.57;1.60;;;;;;;;;;5124199;27;20039;-82
2023/03/11 11:42:52;;;;;;;2.78;1.80;;;;;;;;;;5145512;27;20068;-82
2023/03/11 11:45:24;;;;;;;4.13;1.60;;;;;;;;;;5141096;27;20039;-81
2023/03/11 11:47:52;;;;;;;2.05;1.50;;;;;;;;;;5117905;27;20046;-82
2023/03/11 11:50:27;;;;;;;3.70;1.73;;;;;;;;;;5143491;27;20038;-82
2023/03/11 11:52:57;;;;;;;11.05;1.98;;;;;;;;;;5123939;27;20042;-83
2023/03/11 11:55:26;;;;;;;5.90;1.40;;;;;;;;;;5123773;27;20031;-82
2023/03/11 11:57:52;;;;;;;5.93;1.73;;;;;;;;;;5130982;27;20043;-82
2023/03/11 12:00:24;;;;;;;4.78;1.92;;;;;;;;;;5123029;27;20064;-82
2023/03/11 12:02:59;;;;;;;4.00;1.70;;;;;;;;;;5121466;27;20067;-82
2023/03/11 12:05:31;;;;;;;3.17;1.70;;;;;;;;;;5147103;27;20118;-84
2023/03/11 12:08:06;;;;;;;5.15;1.60;;;;;;;;;;5152082;27;20098;-83
2023/03/11 12:10:51;;;;;;;3.03;1.50;;;;;;;;;;5128445;27;20064;-83
2023/03/11 12:13:22;;;;;;;3.20;1.70;;;;;;;;;;5148847;27;20526;-83
2023/03/11 12:15:51;;;;;;;2.78;1.95;;;;;;;;;;5129298;27;20035;-83
2023/03/11 12:18:24;;;;;;;5.18;1.77;;;;;;;;;;5144745;27;20115;-83
2023/03/11 12:20:57;;;;;;;3.88;2.28;;;;;;;;;;5149349;27;20096;-83
2023/03/11 12:23:42;;;;;;;4.47;1.57;;;;;;;;;;5120211;27;20047;-83
2023/03/11 12:26:15;;;;;;;5.72;1.70;;;;;;;;;;5123290;27;20045;-84
2023/03/11 12:28:50;;;;;;;8.82;1.60;;;;;;;;;;5129741;27;20042;-83
2023/03/11 12:31:16;;;;;;;3.13;1.73;;;;;;;;;;5129549;27;20561;-83
2023/03/11 12:33:46;;;;;;;4.43;1.95;;;;;;;;;;5140101;27;20038;-83
2023/03/11 12:36:25;;;;;;;3.22;1.40;;;;;;;;;;5128270;27;20042;-83
2023/03/11 12:38:52;;;;;;;6.93;1.75;;;;;;;;;;5139762;27;20042;-83
2023/03/11 12:41:37;;;;;;;3.33;1.70;;;;;;;;;;5143983;27;20090;-84
2023/03/11 12:44:23;;;;;;;4.80;1.63;;;;;;;;;;5142829;27;20047;-84
2023/03/11 12:46:59;;;;;;;3.58;1.70;;;;;;;;;;5110036;27;20054;-83
2023/03/11 12:49:29;;;;;;;4.53;1.60;;;;;;;;;;5130179;27;20450;-84
2023/03/11 12:52:01;;;;;;;3.50;1.90;;;;;;;;;;5118998;27;20039;-84
2023/03/11 12:54:29;;;;;;;5.65;1.70;;;;;;;;;;5128980;27;20493;-84
2023/03/11 12:57:03;;;;;;;1.75;1.50;;;;;;;;;;5125671;27;20047;-85
2023/03/11 12:59:29;;;;;;;;;;;;;;;;;;5128095;27;20046;-84
2023/03/11 13:01:55;;;;;;;1.98;1.52;;;;;;;;;;5124709;27;19919;-84
2023/03/11 13:04:21;;;;;;;1.92;1.73;;;;;;;;;;5131920;27;20068;-84
2023/03/11 13:06:53;;;;;;;3.85;1.73;;;;;;;;;;5144822;27;20390;-85
2023/03/11 13:09:19;;;;;;;4.32;1.70;;;;;;;;;;5150068;27;20077;-85
2023/03/11 13:11:46;;;;;;;2.20;1.63;;;;;;;;;;5119518;28;20031;-84
2023/03/11 13:14:15;;;;;;;4.22;1.85;;;;;;;;;;5128542;27;20230;-85
2023/03/11 13:16:41;;;;;;;1.85;1.70;;;;;;;;;;5126911;27;20478;-85
2023/03/11 13:19:25;;;;;;;5.28;1.40;;;;;;;;;;5150209;27;20543;-84
2023/03/11 13:21:57;;;;;;;6.80;1.83;;;;;;;;;;5125963;27;20050;-84
2023/03/11 13:24:28;;;;;;;4.75;1.60;;;;;;;;;;5132178;27;20035;-85
2023/03/11 13:26:54;;;;;;;4.47;2.17;;;;;;;;;;5130180;27;20062;-84
2023/03/11 13:29:20;;;;;;;5.35;1.55;;;;;;;;;;5134623;27;20409;-84
2023/03/11 13:31:49;;;;;;;3.22;1.70;;;;;;;;;;5124415;27;20046;-84
2023/03/11 13:34:34;;;;;;;1.50;1.40;;;;;;;;;;5120795;27;20050;-84
2023/03/11 13:37:00;;;;;;;2.17;1.65;;;;;;;;;;5133964;27;20043;-84
2023/03/11 13:39:45;;;;;;;2.42;1.60;;;;;;;;;;5119834;27;21162;-84
2023/03/11 13:42:17;;;;;;;4.20;1.80;;;;;;;;;;5127046;27;20133;-84
2023/03/11 13:44:45;;;;;;;2.25;1.50;;;;;;;;;;5144218;27;20100;-83
2023/03/11 13:47:15;;;;;;;2.33;1.60;;;;;;;;;;5127786;27;20043;-84
2023/03/11 13:49:51;;;;;;;1.90;1.80;;;;;;;;;;5152271;27;20042;-85
2023/03/11 13:52:31;;;;;;;2.35;1.70;;;;;;;;;;5147979;27;20035;-85
2023/03/11 13:55:17;;;;;;;2.95;1.80;;;;;;;;;;5137515;27;20457;-84
2023/03/11 13:57:49;;;;;;;3.00;1.75;;;;;;;;;;5152839;27;20039;-82
2023/03/11 14:00:22;;;;;;;3.47;1.50;;;;;;;;;;5135533;27;20042;-85
2023/03/11 14:02:57;;;;;;;3.92;1.60;;;;;;;;;;5126843;27;20118;-84
2023/03/11 14:05:33;;;;;;;3.30;1.52;;;;;;;;;;5152421;27;20043;-84
2023/03/11 14:08:20;;;;;;;2.78;2.17;;;;;;;;;;5135635;27;20554;-86
2023/03/11 14:11:21;;;;;;;5.15;1.80;;;;;;;;;;5132569;27;20570;-84
2023/03/11 14:13:49;;;;;;;4.40;1.80;;;;;;;;;;5064500;28;20045;-85
2023/03/11 14:16:17;;;;;;;3.35;1.95;;;;;;;;;;5126717;27;20051;-84
2023/03/11 14:18:47;;;;;;;3.22;1.50;;;;;;;;;;5127359;27;20078;-85
2023/03/11 14:21:20;;;;;;;2.35;1.50;;;;;;;;;;5139116;27;20043;-83
2023/03/11 14:23:46;;;;;;;;;;;;;;;;;;5132615;27;20051;-83
2023/03/11 14:26:14;;;;;;;8.75;3.80;;;;;;;;;;5151653;27;19922;-83
2023/03/11 14:28:43;;;;;;;4.25;1.75;;;;;;;;;;5147853;27;20510;-84
2023/03/11 14:31:20;;;;;;;5.55;1.52;;;;;;;;;;5133468;27;20113;-85
2023/03/11 14:33:54;;;;;;;2.97;1.50;;;;;;;;;;5133838;27;20055;-84
2023/03/11 14:36:20;;;;;;;3.00;1.58;;;;;;;;;;5146120;27;20042;-84
2023/03/11 14:38:46;;;;;;;2.22;1.40;;;;;;;;;;5152112;27;20146;-85
2023/03/11 14:41:13;;;;;;;2.83;1.50;;;;;;;;;;5133297;27;20058;-84
2023/03/11 14:43:41;;;;;;;9.45;5.47;;;;;;;;;;5133571;27;20047;-82
2023/03/11 14:46:07;;;;;;;8.93;4.32;;;;;;;;;;5133077;27;20043;-83
2023/03/11 14:48:37;;;;;;;7.47;5.18;;;;;;;;;;5151478;27;20397;-83
2023/03/11 14:51:05;;;;;;;8.32;6.63;;;;;;;;;;5151613;27;20038;-83